Time;durP1;ratioP1;P1;durP2;ratioP2;P2;SDS_P1;SDS_P2;PMS_P1;PMS_P2;Temp;Humidity;BMP_temperature;BMP_pressure;BME280_temperature;BME280_humidity;BME280_pressure;Samples;Min_cycle;Max_cycle;Signal;HPM_P1;HPM_P2
2022/10/30 00:01:42;;;;;;;1.73;1.63;;;15.80;98.80;;;;;;5108939;28;20661;-83
2022/10/30 00:04:09;;;;;;;1.13;1.00;;;15.90;98.90;;;;;;5109275;28;20654;-81
2022/10/30 00:06:36;;;;;;;3.13;1.37;;;15.90;98.20;;;;;;5108257;28;20616;-82
2022/10/30 00:09:04;;;;;;;2.07;1.70;;;15.90;98.50;;;;;;5109274;28;20658;-81
2022/10/30 00:11:31;;;;;;;1.37;1.27;;;16.00;97.80;;;;;;5109175;28;20661;-82
2022/10/30 00:13:58;;;;;;;1.73;1.63;;;16.00;97.60;;;;;;5106174;28;20715;-82
2022/10/30 00:16:25;;;;;;;3.50;1.27;;;15.90;97.50;;;;;;5093113;28;20685;-82
2022/10/30 00:18:52;;;;;;;8.20;1.00;;;;;;;;;;5108670;28;20628;-82
2022/10/30 00:21:19;;;;;;;1.60;1.50;;;16.00;98.20;;;;;;5108714;28;21177;-82
2022/10/30 00:23:47;;;;;;;4.53;1.60;;;16.00;98.30;;;;;;5102565;28;21177;-81
2022/10/30 00:26:15;;;;;;;1.57;1.23;;;16.00;98.10;;;;;;5108152;28;20723;-82
2022/10/30 00:28:42;;;;;;;2.40;1.70;;;16.00;98.00;;;;;;5108836;28;20945;-82
2022/10/30 00:31:09;;;;;;;2.00;1.87;;;16.00;97.80;;;;;;5108509;28;21018;-81
2022/10/30 00:33:36;;;;;;;0.90;0.90;;;;;;;;;;5108819;28;20692;-82
2022/10/30 00:36:04;;;;;;;2.33;2.13;;;16.00;97.10;;;;;;5108576;28;20643;-81
2022/10/30 00:38:31;;;;;;;1.57;1.47;;;16.00;97.80;;;;;;5106603;28;20714;-82
2022/10/30 00:40:58;;;;;;;2.60;1.43;;;15.90;98.00;;;;;;5109020;28;21133;-81
2022/10/30 00:43:33;;;;;;;0.90;0.90;;;16.00;98.00;;;;;;5108207;28;20639;-82
2022/10/30 00:46:06;;;;;;;2.73;2.00;;;16.10;99.20;;;;;;5108957;28;20657;-81
2022/10/30 00:48:33;;;;;;;3.53;2.23;;;;;;;;;;5107881;28;20704;-81
2022/10/30 00:51:01;;;;;;;1.50;1.27;;;15.90;98.40;;;;;;5108494;28;20611;-81
2022/10/30 00:53:29;;;;;;;2.20;2.00;;;16.00;99.50;;;;;;5108583;28;20734;-81
2022/10/30 00:56:00;;;;;;;1.63;1.50;;;15.90;99.40;;;;;;5108016;28;21080;-82
2022/10/30 00:58:32;;;;;;;2.50;1.80;;;15.90;99.70;;;;;;5108079;28;20636;-82
2022/10/30 01:01:04;;;;;;;2.13;1.93;;;15.90;99.40;;;;;;5109065;28;20660;-82
2022/10/30 01:03:31;;;;;;;1.10;1.00;;;15.90;99.50;;;;;;5112082;28;20635;-82
2022/10/30 01:06:01;;;;;;;4.63;1.53;;;15.80;99.70;;;;;;5111476;28;20664;-82
2022/10/30 01:08:28;;;;;;;1.50;1.40;;;15.90;99.60;;;;;;5111324;28;20626;-82
2022/10/30 01:10:58;;;;;;;3.60;2.40;;;15.80;99.70;;;;;;5112954;28;20603;-82
2022/10/30 01:13:25;;;;;;;1.40;1.07;;;;;;;;;;5112660;28;20702;-82
2022/10/30 01:16:12;;;;;;;1.30;1.13;;;15.80;99.50;;;;;;5094341;28;20652;-82
2022/10/30 01:18:46;;;;;;;2.40;1.33;;;15.90;99.80;;;;;;5112656;28;20673;-82
2022/10/30 01:21:33;;;;;;;1.40;1.30;;;15.80;99.80;;;;;;5112721;28;20603;-82
2022/10/30 01:24:13;;;;;;;1.73;1.10;;;15.80;99.90;;;;;;5105927;28;20665;-82
2022/10/30 01:26:51;;;;;;;1.33;1.13;;;15.70;99.90;;;;;;5112076;28;20653;-82
2022/10/30 01:29:35;;;;;;;1.73;1.33;;;15.70;99.90;;;;;;5112061;28;21079;-83
2022/10/30 01:32:17;;;;;;;2.97;1.77;;;15.70;99.90;;;;;;5112477;28;20606;-82
2022/10/30 01:34:49;;;;;;;2.60;1.63;;;15.70;99.90;;;;;;5112067;28;20659;-83
2022/10/30 01:37:20;;;;;;;1.50;1.40;;;15.70;99.90;;;;;;5111882;28;21157;-82
2022/10/30 01:39:47;;;;;;;1.53;1.37;;;15.50;99.90;;;;;;5110371;28;20626;-82
2022/10/30 01:42:46;;;;;;;1.07;1.07;;;15.50;99.90;;;;;;5112727;28;20759;-82
2022/10/30 01:45:18;;;;;;;1.20;1.10;;;15.40;99.90;;;;;;5111885;28;20648;-82
2022/10/30 01:47:57;;;;;;;4.43;2.10;;;15.40;99.90;;;;;;5111327;28;21160;-82
2022/10/30 01:50:35;;;;;;;1.70;1.50;;;15.30;99.90;;;;;;5111696;28;20633;-82
2022/10/30 01:53:09;;;;;;;2.83;1.57;;;15.30;99.90;;;;;;5111542;28;20754;-82
2022/10/30 01:55:44;;;;;;;1.43;1.33;;;15.30;99.90;;;;;;5111543;28;20654;-82
2022/10/30 01:58:17;;;;;;;2.20;1.47;;;15.40;99.90;;;;;;5110997;28;21195;-82
2022/10/30 02:00:48;;;;;;;1.47;1.23;;;15.40;99.90;;;;;;5111233;28;20603;-82
2022/10/30 02:03:16;;;;;;;2.40;1.93;;;15.40;99.90;;;;;;5111130;28;21149;-82
2022/10/30 02:05:47;;;;;;;1.80;1.53;;;15.40;99.90;;;;;;5109956;28;20714;-82
2022/10/30 02:08:14;;;;;;;1.23;1.13;;;15.50;99.90;;;;;;5111028;28;21266;-84
2022/10/30 02:10:43;;;;;;;2.10;1.90;;;15.20;99.90;;;;;;5111840;28;20983;-81
2022/10/30 02:13:11;;;;;;;3.60;1.63;;;15.50;99.90;;;;;;5110791;28;20607;-81
2022/10/30 02:15:38;;;;;;;1.97;1.77;;;15.30;99.90;;;;;;5111113;28;20994;-81
2022/10/30 02:18:06;;;;;;;3.00;2.43;;;15.30;99.90;;;;;;5111232;28;21014;-81
2022/10/30 02:20:36;;;;;;;1.97;1.40;;;15.30;99.90;;;;;;5111661;28;20611;-82
2022/10/30 02:23:05;;;;;;;1.60;1.50;;;15.30;99.90;;;;;;5105518;28;20612;-82
2022/10/30 02:25:32;;;;;;;4.70;1.80;;;15.20;99.90;;;;;;5110724;28;20669;-82
2022/10/30 02:27:59;;;;;;;2.50;2.20;;;15.30;99.90;;;;;;5111180;28;20611;-82
2022/10/30 02:30:27;;;;;;;2.20;1.70;;;15.20;99.90;;;;;;5111478;28;20627;-82
2022/10/30 02:32:54;;;;;;;2.27;1.67;;;15.30;99.90;;;;;;5111480;28;20642;-82
2022/10/30 02:35:21;;;;;;;1.63;1.53;;;15.30;99.90;;;;;;5111884;28;20651;-84
2022/10/30 02:37:49;;;;;;;3.28;1.77;;;15.20;99.90;;;;;;5110204;28;20774;-81
2022/10/30 02:40:17;;;;;;;2.40;1.70;;;15.20;99.90;;;;;;5111397;28;20656;-82
2022/10/30 02:42:44;;;;;;;3.30;1.73;;;15.10;99.90;;;;;;5111243;28;20718;-82
2022/10/30 02:45:11;;;;;;;2.03;1.80;;;15.20;99.90;;;;;;5111280;27;20962;-82
2022/10/30 02:47:38;;;;;;;9.00;2.07;;;15.00;99.90;;;;;;5109942;28;20712;-82
2022/10/30 02:50:06;;;;;;;4.23;2.10;;;15.50;99.90;;;;;;5110465;28;20612;-81
2022/10/30 02:52:36;;;;;;;2.57;2.37;;;15.00;99.90;;;;;;5110330;28;20616;-82
2022/10/30 02:55:05;;;;;;;2.40;2.17;;;15.00;99.90;;;;;;5110363;28;20656;-82
2022/10/30 02:57:32;;;;;;;1.73;1.63;;;15.00;99.90;;;;;;5110342;28;21019;-83
2022/10/30 03:00:00;;;;;;;1.83;1.70;;;15.00;99.90;;;;;;5110497;28;20615;-82
2022/10/30 03:02:28;;;;;;;1.90;1.80;;;14.90;99.90;;;;;;5111191;28;20983;-82
2022/10/30 03:04:54;;;;;;;2.67;2.03;;;15.00;99.90;;;;;;5111012;28;20623;-83
2022/10/30 03:07:21;;;;;;;2.87;1.90;;;15.00;99.90;;;;;;5109431;28;20611;-83
2022/10/30 03:09:48;;;;;;;2.13;1.90;;;15.00;99.90;;;;;;5110431;28;20599;-83
2022/10/30 03:12:17;;;;;;;7.60;2.30;;;15.20;99.90;;;;;;5111062;28;20607;-83
2022/10/30 03:14:44;;;;;;;2.33;2.13;;;15.00;99.90;;;;;;5100812;28;20609;-83
2022/10/30 03:17:10;;;;;;;4.43;3.13;;;15.00;99.90;;;;;;5101293;28;20608;-83
2022/10/30 03:19:39;;;;;;;3.87;2.40;;;15.00;99.90;;;;;;5109702;28;20614;-83
2022/10/30 03:22:07;;;;;;;6.00;3.20;;;;;;;;;;5107378;28;20609;-83
2022/10/30 03:24:34;;;;;;;4.70;2.70;;;;;;;;;;5106303;28;20981;-83
2022/10/30 03:27:01;;;;;;;2.23;2.07;;;14.80;99.90;;;;;;5109440;28;20634;-83
2022/10/30 03:29:30;;;;;;;2.70;2.20;;;14.80;99.90;;;;;;5110109;28;20677;-83
2022/10/30 03:31:57;;;;;;;5.13;2.73;;;14.70;99.90;;;;;;5109857;28;20612;-83
2022/10/30 03:34:24;;;;;;;2.53;2.00;;;14.80;99.90;;;;;;5109537;28;20624;-83
2022/10/30 03:36:51;;;;;;;2.27;2.07;;;14.70;99.90;;;;;;5109285;28;20644;-83
2022/10/30 03:39:18;;;;;;;3.00;2.80;;;14.80;99.90;;;;;;5108266;28;21165;-83
2022/10/30 03:41:45;;;;;;;2.17;1.97;;;14.70;99.90;;;;;;5110072;28;20619;-83
2022/10/30 03:44:12;;;;;;;2.40;2.07;;;14.60;99.90;;;;;;5109629;28;20723;-83
2022/10/30 03:46:40;;;;;;;5.60;2.80;;;14.60;99.90;;;;;;5109233;28;20606;-84
2022/10/30 03:49:07;;;;;;;3.30;2.03;;;15.30;99.90;;;;;;5109691;28;20697;-83
2022/10/30 03:51:34;;;;;;;2.57;2.37;;;14.50;99.90;;;;;;5109493;28;20665;-83
2022/10/30 03:54:01;;;;;;;3.23;2.53;;;14.50;99.90;;;;;;5108999;28;20619;-83
2022/10/30 03:56:29;;;;;;;2.20;2.00;;;14.50;99.90;;;;;;5108847;28;20647;-84
2022/10/30 03:58:56;;;;;;;3.60;1.93;;;14.50;99.90;;;;;;5109205;28;20620;-83
2022/10/30 04:01:24;;;;;;;2.93;2.03;;;14.40;99.90;;;;;;5109297;28;20691;-83
2022/10/30 04:03:52;;;;;;;2.97;2.53;;;14.40;99.90;;;;;;5109655;28;20633;-84
2022/10/30 04:06:20;;;;;;;2.67;2.47;;;14.50;99.90;;;;;;5109152;28;20626;-84
2022/10/30 04:08:47;;;;;;;2.03;1.90;;;14.30;99.90;;;;;;5109131;28;20620;-84
2022/10/30 04:11:14;;;;;;;2.90;2.10;;;14.40;99.90;;;;;;5109095;28;20615;-83
2022/10/30 04:13:40;;;;;;;2.30;1.60;;;14.40;99.90;;;;;;5108960;28;21107;-84
2022/10/30 04:16:08;;;;;;;4.30;3.10;;;14.40;99.90;;;;;;5108790;28;20660;-83
2022/10/30 04:18:34;;;;;;;5.50;2.20;;;14.50;99.90;;;;;;5108276;28;21045;-83
2022/10/30 04:21:03;;;;;;;4.47;2.13;;;14.40;99.90;;;;;;5109229;28;20703;-83
2022/10/30 04:23:30;;;;;;;1.80;1.63;;;14.40;99.90;;;;;;5103623;28;20615;-85
2022/10/30 04:25:59;;;;;;;2.67;2.47;;;14.30;99.90;;;;;;5109050;28;20673;-83
2022/10/30 04:28:26;;;;;;;5.10;1.90;;;14.30;99.90;;;;;;5108518;28;20603;-83
2022/10/30 04:30:53;;;;;;;2.57;2.23;;;14.30;99.90;;;;;;5108784;28;20719;-83
2022/10/30 04:33:20;;;;;;;3.80;2.83;;;14.30;99.90;;;;;;5109036;28;20616;-83
2022/10/30 04:35:46;;;;;;;2.73;1.67;;;14.20;99.90;;;;;;5108931;28;20727;-83
2022/10/30 04:38:17;;;;;;;4.13;2.50;;;14.30;99.90;;;;;;5106705;28;20604;-84
2022/10/30 04:40:45;;;;;;;2.67;2.40;;;14.20;99.90;;;;;;5108802;28;20748;-84
2022/10/30 04:43:13;;;;;;;3.00;2.37;;;14.20;99.90;;;;;;5109172;28;20685;-83
2022/10/30 04:45:40;;;;;;;4.03;2.50;;;14.00;99.90;;;;;;5108484;28;21032;-83
2022/10/30 04:48:10;;;;;;;2.33;2.10;;;14.10;99.90;;;;;;5108378;28;20600;-83
2022/10/30 04:50:37;;;;;;;3.07;2.70;;;14.10;99.90;;;;;;5108480;28;20651;-83
2022/10/30 04:53:06;;;;;;;2.93;2.73;;;14.20;99.90;;;;;;5109449;28;20714;-83
2022/10/30 04:55:35;;;;;;;2.87;2.67;;;14.20;99.90;;;;;;5107959;28;20669;-83
2022/10/30 04:58:02;;;;;;;2.80;2.23;;;14.30;99.90;;;;;;5107871;28;21082;-83
2022/10/30 05:00:30;;;;;;;3.60;3.10;;;13.90;99.90;;;;;;5108740;28;20618;-83
2022/10/30 05:03:00;;;;;;;4.43;3.20;;;13.90;99.90;;;;;;5108862;28;20618;-83
2022/10/30 05:05:27;;;;;;;1.93;1.80;;;13.70;99.90;;;;;;5108913;28;20655;-83
2022/10/30 05:07:54;;;;;;;5.60;2.80;;;13.50;99.90;;;;;;5107633;28;21153;-84
2022/10/30 05:10:21;;;;;;;1.97;1.77;;;13.90;99.90;;;;;;5108795;28;20655;-83
2022/10/30 05:12:51;;;;;;;3.93;2.47;;;13.50;99.90;;;;;;5108802;28;20625;-83
2022/10/30 05:15:18;;;;;;;3.17;2.87;;;13.40;99.90;;;;;;5108364;28;20723;-84
2022/10/30 05:17:45;;;;;;;3.70;3.30;;;13.20;99.90;;;;;;5107669;28;20716;-84
2022/10/30 05:20:12;;;;;;;2.87;2.33;;;13.20;99.90;;;;;;5108092;28;21100;-83
2022/10/30 05:22:39;;;;;;;4.90;2.70;;;13.20;99.90;;;;;;5102176;28;20720;-83
2022/10/30 05:25:06;;;;;;;9.83;3.03;;;13.20;99.90;;;;;;5109354;28;20696;-82
2022/10/30 05:27:33;;;;;;;2.80;2.53;;;13.20;99.90;;;;;;5107555;28;20702;-82
2022/10/30 05:30:01;;;;;;;2.77;2.00;;;13.20;99.90;;;;;;5108985;28;20619;-82
2022/10/30 05:32:28;;;;;;;4.50;2.87;;;13.40;99.90;;;;;;5108778;28;20596;-82
2022/10/30 05:34:55;;;;;;;3.77;3.33;;;13.40;99.90;;;;;;5108054;28;20627;-82
2022/10/30 05:37:22;;;;;;;7.10;2.63;;;13.20;99.90;;;;;;5107484;28;20647;-83
2022/10/30 05:39:49;;;;;;;3.10;2.87;;;13.20;99.90;;;;;;5107923;28;20639;-83
2022/10/30 05:42:16;;;;;;;4.03;2.70;;;13.20;99.90;;;;;;5108380;28;20651;-82
2022/10/30 05:44:43;;;;;;;4.07;2.20;;;13.10;99.90;;;;;;5108141;28;20730;-82
2022/10/30 05:47:12;;;;;;;6.50;2.47;;;13.20;99.90;;;;;;5107650;28;21008;-82
2022/10/30 05:49:39;;;;;;;3.20;2.83;;;13.30;99.90;;;;;;5111984;28;20646;-83
2022/10/30 05:52:06;;;;;;;3.30;2.60;;;13.10;99.90;;;;;;5112837;28;20710;-83
2022/10/30 05:54:33;;;;;;;2.50;2.30;;;13.30;99.90;;;;;;5112364;28;20802;-82
2022/10/30 05:56:59;;;;;;;3.47;3.17;;;13.30;99.90;;;;;;5111874;28;20685;-82
2022/10/30 05:59:26;;;;;;;6.27;2.83;;;13.20;99.90;;;;;;5111618;28;20612;-82
2022/10/30 06:01:54;;;;;;;1.63;1.53;;;13.30;99.90;;;;;;5111501;28;20665;-82
2022/10/30 06:04:23;;;;;;;3.03;2.20;;;14.10;99.90;;;;;;5111490;28;20640;-82
2022/10/30 06:06:50;;;;;;;5.30;2.63;;;;;;;;;;5110489;28;20962;-83
2022/10/30 06:09:17;;;;;;;3.10;2.30;;;13.30;99.90;;;;;;5112584;28;20615;-82
2022/10/30 06:11:44;;;;;;;3.83;3.03;;;13.20;99.90;;;;;;5112338;28;20666;-82
2022/10/30 06:14:10;;;;;;;3.07;2.70;;;13.10;99.90;;;;;;5111604;28;20680;-82
2022/10/30 06:16:37;;;;;;;2.27;2.00;;;13.30;99.90;;;;;;5112072;28;21041;-84
2022/10/30 06:19:04;;;;;;;3.10;2.30;;;13.10;99.90;;;;;;5111273;28;20615;-83
2022/10/30 06:21:33;;;;;;;5.13;2.73;;;13.00;99.90;;;;;;5111862;28;20620;-84
2022/10/30 06:23:59;;;;;;;2.80;2.40;;;13.10;99.90;;;;;;5110433;28;20719;-83
2022/10/30 06:26:26;;;;;;;3.60;2.60;;;12.90;99.90;;;;;;5110146;28;20627;-83
2022/10/30 06:28:53;;;;;;;2.03;1.90;;;13.10;99.90;;;;;;5107516;28;21196;-84
2022/10/30 06:31:20;;;;;;;2.33;2.13;;;13.10;99.90;;;;;;5110555;28;21381;-84
2022/10/30 06:33:47;;;;;;;3.17;2.90;;;;;;;;;;5110846;28;20612;-83
2022/10/30 06:36:16;;;;;;;3.80;3.43;;;13.00;99.90;;;;;;5111000;28;20631;-83
2022/10/30 06:38:44;;;;;;;3.57;2.70;;;13.10;99.90;;;;;;5111071;28;20676;-84
2022/10/30 06:41:11;;;;;;;2.90;2.70;;;13.10;99.90;;;;;;5110912;28;20718;-83
2022/10/30 06:43:38;;;;;;;4.93;2.27;;;13.20;99.90;;;;;;5111320;28;20615;-83
2022/10/30 06:46:05;;;;;;;5.10;2.60;;;13.20;99.90;;;;;;5110306;28;21267;-83
2022/10/30 06:48:32;;;;;;;2.80;2.10;;;13.20;99.90;;;;;;5111088;28;20728;-84
2022/10/30 06:51:01;;;;;;;3.07;2.77;;;13.20;99.90;;;;;;5110816;28;20639;-83
2022/10/30 06:53:28;;;;;;;3.07;2.00;;;13.40;99.90;;;;;;5111404;28;20665;-83
2022/10/30 06:55:58;;;;;;;4.30;3.03;;;13.30;99.90;;;;;;5110526;28;21243;-82
2022/10/30 06:58:25;;;;;;;7.90;2.70;;;13.30;99.90;;;;;;5110362;28;20618;-84
2022/10/30 07:00:53;;;;;;;2.50;2.30;;;13.30;99.90;;;;;;5110175;28;20630;-83
2022/10/30 07:03:20;;;;;;;2.60;2.40;;;13.40;99.90;;;;;;5111022;28;20668;-83
2022/10/30 07:05:47;;;;;;;3.50;3.00;;;13.40;99.90;;;;;;5111211;28;20648;-82
2022/10/30 07:08:14;;;;;;;3.93;2.20;;;13.20;99.90;;;;;;5109689;28;20604;-82
2022/10/30 07:10:41;;;;;;;5.90;2.80;;;13.30;99.90;;;;;;5109312;28;20624;-82
2022/10/30 07:13:09;;;;;;;2.90;2.53;;;13.30;99.90;;;;;;5111220;28;21252;-82
2022/10/30 07:15:36;;;;;;;6.27;3.43;;;13.40;99.90;;;;;;5110485;28;20719;-81
2022/10/30 07:18:04;;;;;;;2.93;2.40;;;13.50;99.90;;;;;;5109905;28;20659;-81
2022/10/30 07:20:33;;;;;;;2.63;2.43;;;13.50;99.90;;;;;;5111574;28;20615;-81
2022/10/30 07:23:00;;;;;;;2.50;2.20;;;13.50;99.90;;;;;;5104810;28;21134;-83
2022/10/30 07:25:27;;;;;;;3.77;2.47;;;13.60;99.90;;;;;;5110515;28;20731;-82
2022/10/30 07:27:55;;;;;;;3.67;2.10;;;13.60;99.90;;;;;;5109818;28;20622;-83
2022/10/30 07:30:26;;;;;;;3.40;1.97;;;13.60;99.90;;;;;;5110776;28;20621;-83
2022/10/30 07:33:00;;;;;;;4.03;2.00;;;13.60;99.90;;;;;;5110674;28;20612;-81
2022/10/30 07:35:28;;;;;;;2.30;2.10;;;13.80;99.90;;;;;;5110398;28;21016;-82
2022/10/30 07:37:55;;;;;;;2.47;2.27;;;13.80;99.90;;;;;;5110245;28;20644;-81
2022/10/30 07:40:23;;;;;;;2.37;2.20;;;13.90;99.90;;;;;;5109299;28;20738;-81
2022/10/30 07:42:55;;;;;;;1.60;1.47;;;14.00;99.90;;;;;;5111027;28;20619;-82
2022/10/30 07:45:21;;;;;;;3.20;1.90;;;13.90;99.90;;;;;;5111576;28;20689;-83
2022/10/30 07:47:50;;;;;;;2.07;1.97;;;14.00;99.90;;;;;;5110663;28;20619;-81
2022/10/30 07:50:17;;;;;;;3.20;2.73;;;14.10;99.90;;;;;;5111803;28;20619;-82
2022/10/30 07:52:44;;;;;;;3.77;2.57;;;14.20;99.90;;;;;;5111691;28;21044;-82
2022/10/30 07:55:11;;;;;;;3.80;1.93;;;14.10;99.90;;;;;;5111690;28;20635;-82
2022/10/30 07:57:39;;;;;;;4.50;2.67;;;14.30;99.90;;;;;;5110489;28;20770;-82
2022/10/30 08:00:08;;;;;;;4.60;2.33;;;14.40;99.90;;;;;;5110304;28;20962;-82
2022/10/30 08:02:35;;;;;;;1.90;1.80;;;14.50;99.90;;;;;;5111360;28;20711;-82
2022/10/30 08:05:05;;;;;;;3.20;2.70;;;14.60;99.90;;;;;;5111275;28;20604;-83
2022/10/30 08:07:33;;;;;;;2.53;2.33;;;14.60;99.90;;;;;;5108791;28;20680;-82
2022/10/30 08:10:00;;;;;;;5.23;2.57;;;14.80;99.90;;;;;;5109311;28;20622;-83
2022/10/30 08:12:28;;;;;;;3.20;2.90;;;14.90;99.90;;;;;;5109546;28;20622;-83
2022/10/30 08:14:55;;;;;;;2.93;2.47;;;15.00;99.90;;;;;;5109352;28;21222;-82
2022/10/30 08:17:23;;;;;;;3.03;2.03;;;15.10;99.90;;;;;;5107220;28;20659;-82
2022/10/30 08:19:49;;;;;;;4.87;3.10;;;15.10;99.90;;;;;;5108665;28;20604;-81
2022/10/30 08:22:18;;;;;;;2.73;2.40;;;15.20;99.90;;;;;;5107410;28;20681;-82
2022/10/30 08:24:45;;;;;;;3.23;2.40;;;15.30;99.90;;;;;;5106197;28;20612;-82
2022/10/30 08:27:11;;;;;;;2.70;2.50;;;16.80;99.90;;;;;;5108118;28;21088;-84
2022/10/30 08:29:38;;;;;;;4.10;2.77;;;15.50;99.90;;;;;;5108533;28;21037;-84
2022/10/30 08:32:05;;;;;;;4.23;2.77;;;15.60;99.90;;;;;;5106925;28;20720;-84
2022/10/30 08:34:33;;;;;;;3.93;2.30;;;15.70;99.90;;;;;;5108432;28;20624;-82
2022/10/30 08:37:00;;;;;;;2.87;2.33;;;15.80;99.90;;;;;;5107529;28;20678;-82
2022/10/30 08:39:29;;;;;;;5.63;2.30;;;15.90;99.90;;;;;;5108988;28;20939;-82
2022/10/30 08:41:58;;;;;;;2.00;1.90;;;16.00;99.90;;;;;;5109863;28;20620;-82
2022/10/30 08:44:24;;;;;;;2.63;2.10;;;16.00;99.90;;;;;;5107822;28;21483;-82
2022/10/30 08:46:51;;;;;;;3.37;2.17;;;16.20;99.90;;;;;;5107610;28;20652;-81
2022/10/30 08:49:18;;;;;;;2.43;2.23;;;;;;;;;;5107553;28;21199;-82
2022/10/30 08:51:45;;;;;;;8.63;2.63;;;16.30;99.90;;;;;;5107727;28;20710;-82
2022/10/30 08:54:12;;;;;;;3.47;1.97;;;16.50;99.90;;;;;;5107459;28;20631;-82
2022/10/30 08:56:40;;;;;;;3.43;1.40;;;16.60;99.90;;;;;;5107609;28;21227;-83
2022/10/30 08:59:08;;;;;;;4.17;2.37;;;;;;;;;;5109191;28;20616;-83
2022/10/30 09:01:35;;;;;;;2.20;2.00;;;16.70;99.30;;;;;;5109645;28;20615;-82
2022/10/30 09:04:02;;;;;;;2.10;1.93;;;16.80;99.60;;;;;;5108704;28;20623;-82
2022/10/30 09:06:30;;;;;;;2.20;2.07;;;16.70;99.50;;;;;;5108019;28;21477;-82
2022/10/30 09:08:57;;;;;;;2.77;2.30;;;16.90;99.60;;;;;;5108948;28;20754;-83
2022/10/30 09:11:24;;;;;;;2.73;2.47;;;17.00;99.90;;;;;;5109334;28;20643;-83
2022/10/30 09:13:52;;;;;;;3.63;2.07;;;17.10;99.20;;;;;;5106920;28;20607;-84
2022/10/30 09:16:19;;;;;;;2.07;1.87;;;17.20;98.90;;;;;;5092453;28;20726;-84
2022/10/30 09:18:46;;;;;;;2.00;1.90;;;17.30;98.40;;;;;;5108771;28;21175;-83
2022/10/30 09:21:12;;;;;;;1.67;1.47;;;17.30;98.90;;;;;;5108864;28;20704;-81
2022/10/30 09:23:39;;;;;;;1.60;1.50;;;17.40;98.90;;;;;;5104946;28;20734;-82
2022/10/30 09:26:06;;;;;;;2.77;2.13;;;17.50;98.90;;;;;;5112463;28;20660;-81
2022/10/30 09:28:33;;;;;;;2.47;2.27;;;17.50;98.90;;;;;;5111734;28;20712;-82
2022/10/30 09:31:03;;;;;;;2.13;1.93;;;17.50;99.20;;;;;;5113984;28;20627;-82
2022/10/30 09:33:29;;;;;;;1.60;1.50;;;17.60;99.20;;;;;;5112351;28;20719;-85
2022/10/30 09:35:56;;;;;;;2.27;2.07;;;17.70;98.30;;;;;;5112907;28;20615;-82
2022/10/30 09:38:23;;;;;;;1.73;1.60;;;17.80;97.40;;;;;;5110887;28;21225;-82
2022/10/30 09:41:09;;;;;;;2.10;1.73;;;17.90;97.40;;;;;;5112073;28;20663;-82
2022/10/30 09:43:45;;;;;;;1.80;1.70;;;17.40;96.90;;;;;;5111887;28;20615;-82
2022/10/30 09:46:33;;;;;;;1.83;1.50;;;18.00;97.00;;;;;;5112304;28;20822;-83
2022/10/30 09:49:20;;;;;;;3.17;2.23;;;18.00;97.30;;;;;;5111998;28;20724;-82
2022/10/30 09:52:08;;;;;;;2.00;1.80;;;18.00;97.40;;;;;;5112613;28;20615;-83
2022/10/30 09:54:53;;;;;;;2.27;1.77;;;18.10;97.00;;;;;;5111849;28;20620;-82
2022/10/30 09:57:29;;;;;;;2.17;1.97;;;18.20;96.50;;;;;;5111668;28;20657;-82
2022/10/30 10:00:04;;;;;;;3.10;2.03;;;18.40;96.70;;;;;;5111693;28;20600;-83
2022/10/30 10:02:36;;;;;;;3.93;2.50;;;18.40;96.30;;;;;;5111995;28;20639;-82
2022/10/30 10:05:11;;;;;;;2.13;1.97;;;18.30;96.50;;;;;;5112278;28;20622;-81
2022/10/30 10:07:42;;;;;;;2.83;1.90;;;18.40;96.60;;;;;;5110987;28;20683;-83
2022/10/30 10:10:15;;;;;;;2.40;2.20;;;18.50;96.60;;;;;;5111560;28;20718;-83
2022/10/30 10:12:46;;;;;;;3.97;2.33;;;18.50;96.30;;;;;;5111515;28;21177;-83
2022/10/30 10:15:20;;;;;;;1.90;1.80;;;18.50;96.50;;;;;;5111424;28;20672;-83
2022/10/30 10:17:49;;;;;;;2.60;1.87;;;18.50;96.80;;;;;;5110990;28;21058;-83
2022/10/30 10:20:25;;;;;;;2.90;2.20;;;18.60;96.60;;;;;;5111067;28;20607;-83
2022/10/30 10:22:52;;;;;;;3.03;2.17;;;18.60;96.30;;;;;;5105443;28;21476;-83
2022/10/30 10:25:20;;;;;;;3.40;1.83;;;18.70;96.30;;;;;;5111384;28;20662;-82
2022/10/30 10:28:01;;;;;;;4.10;2.00;;;18.80;96.70;;;;;;5110958;28;21033;-83
2022/10/30 10:30:38;;;;;;;3.00;1.90;;;18.90;96.30;;;;;;5111151;28;20699;-83
2022/10/30 10:33:22;;;;;;;1.73;1.63;;;19.00;96.00;;;;;;5110055;28;20615;-83
2022/10/30 10:36:08;;;;;;;4.63;2.60;;;19.00;96.20;;;;;;5110531;28;20639;-83
2022/10/30 10:38:54;;;;;;;3.03;2.17;;;19.20;96.40;;;;;;5108085;28;20737;-83
2022/10/30 10:41:33;;;;;;;2.70;1.80;;;19.20;96.30;;;;;;5108982;28;20611;-83
2022/10/30 10:44:16;;;;;;;2.30;1.73;;;19.20;95.90;;;;;;5108005;28;20707;-83
2022/10/30 10:47:00;;;;;;;1.73;1.53;;;19.30;95.90;;;;;;5109951;28;20738;-82
2022/10/30 10:49:46;;;;;;;2.80;2.17;;;19.40;95.20;;;;;;5110513;28;21015;-83
2022/10/30 10:52:17;;;;;;;3.53;1.83;;;19.50;95.70;;;;;;5108624;28;21184;-83
2022/10/30 10:54:46;;;;;;;2.60;2.27;;;19.50;95.60;;;;;;5110841;28;20723;-83
2022/10/30 10:57:21;;;;;;;2.90;2.50;;;19.60;96.10;;;;;;5110969;28;20854;-83
2022/10/30 10:59:52;;;;;;;2.40;1.40;;;19.50;96.30;;;;;;5113041;28;20604;-83
2022/10/30 11:02:31;;;;;;;1.67;1.57;;;19.70;96.30;;;;;;5110834;28;20730;-83
2022/10/30 11:05:05;;;;;;;2.30;2.07;;;19.70;96.30;;;;;;5108398;28;21032;-83
2022/10/30 11:07:35;;;;;;;2.00;1.87;;;19.90;95.70;;;;;;5108141;28;20611;-83
2022/10/30 11:10:02;;;;;;;1.53;1.43;;;;;;;;;;5109786;28;20620;-83
2022/10/30 11:12:36;;;;;;;2.83;1.67;;;19.90;95.60;;;;;;5109112;28;20708;-85
2022/10/30 11:15:14;;;;;;;2.80;2.10;;;19.90;95.70;;;;;;5109798;28;20755;-83
2022/10/30 11:17:50;;;;;;;2.70;1.83;;;20.00;96.10;;;;;;5108325;28;20723;-83
2022/10/30 11:20:23;;;;;;;1.50;1.37;;;20.00;96.70;;;;;;5107956;28;20702;-83
2022/10/30 11:22:51;;;;;;;2.20;2.00;;;20.10;96.40;;;;;;5093226;28;20727;-83
2022/10/30 11:25:22;;;;;;;1.97;1.70;;;20.10;96.20;;;;;;5109471;28;20603;-82
2022/10/30 11:27:53;;;;;;;2.60;2.40;;;20.20;96.80;;;;;;5109660;28;21090;-83
2022/10/30 11:30:23;;;;;;;2.80;1.87;;;20.20;97.10;;;;;;5109717;28;20718;-83
2022/10/30 11:32:50;;;;;;;2.40;2.00;;;20.30;97.60;;;;;;5110646;28;20626;-83
2022/10/30 11:35:20;;;;;;;2.40;1.80;;;20.40;96.90;;;;;;5109053;28;20703;-82
2022/10/30 11:37:49;;;;;;;3.00;2.23;;;20.30;97.10;;;;;;5108687;28;20677;-82
2022/10/30 11:40:18;;;;;;;2.07;1.77;;;20.40;97.30;;;;;;5109538;28;20620;-83
2022/10/30 11:42:48;;;;;;;3.33;1.90;;;20.50;97.30;;;;;;5106968;28;20624;-83
2022/10/30 11:45:18;;;;;;;2.37;1.60;;;20.50;96.90;;;;;;5108442;28;20702;-83
2022/10/30 11:47:45;;;;;;;1.97;1.80;;;20.60;96.50;;;;;;5106614;28;20692;-83
2022/10/30 11:50:20;;;;;;;2.87;2.40;;;20.60;96.80;;;;;;5108717;28;20727;-83
2022/10/30 11:52:53;;;;;;;1.60;1.50;;;20.60;96.80;;;;;;5106701;28;21188;-83
2022/10/30 11:55:24;;;;;;;2.00;1.77;;;20.70;96.90;;;;;;5108951;28;20998;-82
2022/10/30 11:57:54;;;;;;;3.93;2.63;;;20.70;96.90;;;;;;5108999;28;20659;-83
2022/10/30 12:00:23;;;;;;;2.67;2.23;;;20.70;96.80;;;;;;5108272;28;21262;-83
2022/10/30 12:02:52;;;;;;;1.53;1.43;;;20.70;97.00;;;;;;5109049;28;20756;-83
2022/10/30 12:05:44;;;;;;;3.00;2.00;;;20.70;97.00;;;;;;5108375;28;20684;-83
2022/10/30 12:08:18;;;;;;;6.83;2.43;;;20.70;97.10;;;;;;5095059;28;20630;-82
2022/10/30 12:10:54;;;;;;;2.23;2.03;;;20.70;97.00;;;;;;5105225;28;21001;-83
2022/10/30 12:13:23;;;;;;;3.33;3.03;;;20.80;97.00;;;;;;5108775;28;20615;-83
2022/10/30 12:16:02;;;;;;;9.20;1.90;;;20.80;97.00;;;;;;5106315;28;20611;-83
2022/10/30 12:18:30;;;;;;;3.47;3.10;;;20.80;97.00;;;;;;5106243;28;20695;-83
2022/10/30 12:20:58;;;;;;;3.87;2.27;;;20.80;97.20;;;;;;5108248;28;20668;-83
2022/10/30 12:23:27;;;;;;;3.83;1.93;;;20.90;97.20;;;;;;5103836;28;20624;-82
2022/10/30 12:25:56;;;;;;;2.47;2.13;;;20.90;97.20;;;;;;5108295;28;20673;-83
2022/10/30 12:28:25;;;;;;;2.50;2.30;;;20.90;97.40;;;;;;5105375;28;20616;-83
2022/10/30 12:30:57;;;;;;;3.40;1.87;;;20.90;97.40;;;;;;5108561;28;20710;-82
2022/10/30 12:33:28;;;;;;;4.87;1.83;;;21.00;97.50;;;;;;5106450;28;20626;-82
2022/10/30 12:35:57;;;;;;;2.60;2.40;;;21.00;97.60;;;;;;5107454;28;20681;-82
2022/10/30 12:38:30;;;;;;;2.30;2.20;;;21.00;97.60;;;;;;5108139;28;20756;-82
2022/10/30 12:41:10;;;;;;;3.07;1.97;;;21.10;98.10;;;;;;5108411;28;20604;-82
2022/10/30 12:43:37;;;;;;;6.23;2.20;;;21.10;97.20;;;;;;5108754;28;20616;-81
2022/10/30 12:46:23;;;;;;;2.23;2.10;;;21.10;97.20;;;;;;5108826;28;20746;-82
2022/10/30 12:48:53;;;;;;;3.50;1.77;;;21.20;97.00;;;;;;5106711;28;20731;-82
2022/10/30 12:51:27;;;;;;;2.20;1.97;;;21.20;98.10;;;;;;5109099;28;20624;-82
2022/10/30 12:54:00;;;;;;;2.40;2.07;;;21.20;98.10;;;;;;5108403;28;20614;-83
2022/10/30 12:56:32;;;;;;;6.83;2.60;;;21.30;97.80;;;;;;5108701;28;21153;-83
2022/10/30 12:59:12;;;;;;;1.67;1.57;;;21.30;98.40;;;;;;5112302;28;20755;-83
2022/10/30 13:01:45;;;;;;;5.07;2.40;;;21.20;98.30;;;;;;5112937;28;20611;-83
2022/10/30 13:04:17;;;;;;;2.07;1.97;;;21.20;97.80;;;;;;5113365;28;20612;-82